sensor_id;sensor_type;location;lat;lon;timestamp;P1;durP1;ratioP1;P2;durP2;ratioP2
1446;SDS011;717;51.522;7.266;2023-05-20T00:00:24;1.50;;;1.40;;
1446;SDS011;717;51.522;7.266;2023-05-20T00:02:53;3.00;;;1.60;;
1446;SDS011;717;51.522;7.266;2023-05-20T00:05:21;2.25;;;1.67;;
1446;SDS011;717;51.522;7.266;2023-05-20T00:07:50;1.70;;;1.50;;
1446;SDS011;717;51.522;7.266;2023-05-20T00:10:18;1.50;;;1.38;;
1446;SDS011;717;51.522;7.266;2023-05-20T00:12:47;2.05;;;1.60;;
1446;SDS011;717;51.522;7.266;2023-05-20T00:15:15;1.88;;;1.60;;
1446;SDS011;717;51.522;7.266;2023-05-20T00:17:47;1.80;;;1.42;;
1446;SDS011;717;51.522;7.266;2023-05-20T00:20:15;1.88;;;1.20;;
1446;SDS011;717;51.522;7.266;2023-05-20T00:22:44;2.72;;;1.63;;
1446;SDS011;717;51.522;7.266;2023-05-20T00:25:13;2.85;;;1.50;;
1446;SDS011;717;51.522;7.266;2023-05-20T00:27:42;2.25;;;1.70;;
1446;SDS011;717;51.522;7.266;2023-05-20T00:30:11;2.20;;;1.77;;
1446;SDS011;717;51.522;7.266;2023-05-20T00:32:40;1.77;;;1.58;;
1446;SDS011;717;51.522;7.266;2023-05-20T00:35:11;1.50;;;1.25;;
1446;SDS011;717;51.522;7.266;2023-05-20T00:37:39;1.95;;;1.50;;
1446;SDS011;717;51.522;7.266;2023-05-20T00:40:08;2.85;;;1.42;;
1446;SDS011;717;51.522;7.266;2023-05-20T00:42:37;1.90;;;1.70;;
1446;SDS011;717;51.522;7.266;2023-05-20T00:45:06;2.30;;;1.65;;
1446;SDS011;717;51.522;7.266;2023-05-20T00:47:37;3.40;;;1.70;;
1446;SDS011;717;51.522;7.266;2023-05-20T00:50:06;1.70;;;1.45;;
1446;SDS011;717;51.522;7.266;2023-05-20T00:52:38;2.00;;;1.60;;
1446;SDS011;717;51.522;7.266;2023-05-20T00:55:12;2.55;;;1.42;;
1446;SDS011;717;51.522;7.266;2023-05-20T00:57:41;2.63;;;1.70;;
1446;SDS011;717;51.522;7.266;2023-05-20T01:00:10;2.92;;;1.73;;
1446;SDS011;717;51.522;7.266;2023-05-20T01:02:39;2.25;;;1.55;;
1446;SDS011;717;51.522;7.266;2023-05-20T01:05:08;1.77;;;1.60;;
1446;SDS011;717;51.522;7.266;2023-05-20T01:07:39;2.22;;;1.60;;
1446;SDS011;717;51.522;7.266;2023-05-20T01:10:08;2.17;;;1.48;;
1446;SDS011;717;51.522;7.266;2023-05-20T01:12:38;3.03;;;1.55;;
1446;SDS011;717;51.522;7.266;2023-05-20T01:15:10;3.67;;;1.67;;
1446;SDS011;717;51.522;7.266;2023-05-20T01:17:42;4.35;;;2.00;;
1446;SDS011;717;51.522;7.266;2023-05-20T01:20:12;2.60;;;1.60;;
1446;SDS011;717;51.522;7.266;2023-05-20T01:22:49;4.10;;;1.45;;
1446;SDS011;717;51.522;7.266;2023-05-20T01:25:20;3.35;;;1.60;;
1446;SDS011;717;51.522;7.266;2023-05-20T01:27:50;2.35;;;1.60;;
1446;SDS011;717;51.522;7.266;2023-05-20T01:30:21;2.60;;;1.58;;
1446;SDS011;717;51.522;7.266;2023-05-20T01:32:53;2.95;;;1.83;;
1446;SDS011;717;51.522;7.266;2023-05-20T01:35:26;1.95;;;1.27;;
1446;SDS011;717;51.522;7.266;2023-05-20T01:37:59;2.35;;;1.60;;
1446;SDS011;717;51.522;7.266;2023-05-20T01:40:28;2.63;;;1.77;;
1446;SDS011;717;51.522;7.266;2023-05-20T01:42:57;2.78;;;1.52;;
1446;SDS011;717;51.522;7.266;2023-05-20T01:45:26;3.10;;;1.75;;
1446;SDS011;717;51.522;7.266;2023-05-20T01:47:55;3.25;;;1.65;;
1446;SDS011;717;51.522;7.266;2023-05-20T01:50:25;3.40;;;1.65;;
1446;SDS011;717;51.522;7.266;2023-05-20T01:52:54;2.20;;;1.55;;
1446;SDS011;717;51.522;7.266;2023-05-20T01:55:25;2.10;;;1.80;;
1446;SDS011;717;51.522;7.266;2023-05-20T01:57:54;2.78;;;1.80;;
1446;SDS011;717;51.522;7.266;2023-05-20T02:00:22;2.63;;;1.88;;
1446;SDS011;717;51.522;7.266;2023-05-20T02:02:51;2.40;;;1.67;;
1446;SDS011;717;51.522;7.266;2023-05-20T02:05:20;3.10;;;1.60;;
1446;SDS011;717;51.522;7.266;2023-05-20T02:07:48;2.65;;;1.80;;
1446;SDS011;717;51.522;7.266;2023-05-20T02:10:17;2.25;;;1.80;;
1446;SDS011;717;51.522;7.266;2023-05-20T02:12:48;4.07;;;2.25;;
1446;SDS011;717;51.522;7.266;2023-05-20T02:15:17;2.70;;;1.67;;
1446;SDS011;717;51.522;7.266;2023-05-20T02:17:45;2.35;;;1.80;;
1446;SDS011;717;51.522;7.266;2023-05-20T02:20:14;2.75;;;2.00;;
1446;SDS011;717;51.522;7.266;2023-05-20T02:22:43;3.45;;;2.25;;
1446;SDS011;717;51.522;7.266;2023-05-20T02:25:11;4.57;;;1.95;;
1446;SDS011;717;51.522;7.266;2023-05-20T02:27:40;3.28;;;1.90;;
1446;SDS011;717;51.522;7.266;2023-05-20T02:30:11;2.05;;;1.80;;
1446;SDS011;717;51.522;7.266;2023-05-20T02:32:41;3.53;;;1.98;;
1446;SDS011;717;51.522;7.266;2023-05-20T02:35:09;2.63;;;1.90;;
1446;SDS011;717;51.522;7.266;2023-05-20T02:37:38;2.28;;;1.85;;
1446;SDS011;717;51.522;7.266;2023-05-20T02:40:09;3.40;;;1.85;;
1446;SDS011;717;51.522;7.266;2023-05-20T02:42:38;2.50;;;1.98;;
1446;SDS011;717;51.522;7.266;2023-05-20T02:45:07;1.67;;;1.50;;
1446;SDS011;717;51.522;7.266;2023-05-20T02:47:39;1.98;;;1.50;;
1446;SDS011;717;51.522;7.266;2023-05-20T02:50:07;2.53;;;1.73;;
1446;SDS011;717;51.522;7.266;2023-05-20T02:52:36;2.70;;;1.70;;
1446;SDS011;717;51.522;7.266;2023-05-20T02:55:06;1.80;;;1.70;;
1446;SDS011;717;51.522;7.266;2023-05-20T02:57:35;2.28;;;2.00;;
1446;SDS011;717;51.522;7.266;2023-05-20T03:00:05;3.15;;;1.90;;
1446;SDS011;717;51.522;7.266;2023-05-20T03:02:37;3.35;;;1.80;;
1446;SDS011;717;51.522;7.266;2023-05-20T03:05:06;2.60;;;1.52;;
1446;SDS011;717;51.522;7.266;2023-05-20T03:07:36;1.83;;;1.50;;
1446;SDS011;717;51.522;7.266;2023-05-20T03:10:05;2.45;;;1.80;;
1446;SDS011;717;51.522;7.266;2023-05-20T03:12:35;1.75;;;1.65;;
1446;SDS011;717;51.522;7.266;2023-05-20T03:15:04;3.55;;;1.83;;
1446;SDS011;717;51.522;7.266;2023-05-20T03:17:33;6.82;;;1.92;;
1446;SDS011;717;51.522;7.266;2023-05-20T03:20:05;3.20;;;1.80;;
1446;SDS011;717;51.522;7.266;2023-05-20T03:22:36;2.28;;;1.95;;
1446;SDS011;717;51.522;7.266;2023-05-20T03:25:05;2.35;;;1.83;;
1446;SDS011;717;51.522;7.266;2023-05-20T03:27:34;3.50;;;2.03;;
1446;SDS011;717;51.522;7.266;2023-05-20T03:30:03;1.95;;;1.70;;
1446;SDS011;717;51.522;7.266;2023-05-20T03:32:33;2.67;;;2.08;;
1446;SDS011;717;51.522;7.266;2023-05-20T03:35:05;2.15;;;1.73;;
1446;SDS011;717;51.522;7.266;2023-05-20T03:37:35;2.65;;;1.80;;
1446;SDS011;717;51.522;7.266;2023-05-20T03:40:04;2.40;;;1.83;;
1446;SDS011;717;51.522;7.266;2023-05-20T03:42:34;2.00;;;1.73;;
1446;SDS011;717;51.522;7.266;2023-05-20T03:45:03;2.00;;;1.60;;
1446;SDS011;717;51.522;7.266;2023-05-20T03:47:32;3.17;;;2.03;;
1446;SDS011;717;51.522;7.266;2023-05-20T03:50:04;3.67;;;1.92;;
1446;SDS011;717;51.522;7.266;2023-05-20T03:52:33;2.63;;;1.73;;
1446;SDS011;717;51.522;7.266;2023-05-20T03:55:02;3.53;;;1.98;;
1446;SDS011;717;51.522;7.266;2023-05-20T03:57:31;2.65;;;2.00;;
1446;SDS011;717;51.522;7.266;2023-05-20T04:00:00;2.00;;;1.73;;
1446;SDS011;717;51.522;7.266;2023-05-20T04:02:34;3.72;;;1.90;;
1446;SDS011;717;51.522;7.266;2023-05-20T04:05:05;1.70;;;1.58;;
1446;SDS011;717;51.522;7.266;2023-05-20T04:07:35;2.13;;;1.90;;
1446;SDS011;717;51.522;7.266;2023-05-20T04:10:05;2.00;;;1.80;;
1446;SDS011;717;51.522;7.266;2023-05-20T04:12:39;2.20;;;1.90;;
1446;SDS011;717;51.522;7.266;2023-05-20T04:15:09;2.97;;;2.13;;
1446;SDS011;717;51.522;7.266;2023-05-20T04:17:39;2.13;;;1.70;;
1446;SDS011;717;51.522;7.266;2023-05-20T04:20:15;3.75;;;2.22;;
1446;SDS011;717;51.522;7.266;2023-05-20T04:22:44;2.42;;;2.00;;
1446;SDS011;717;51.522;7.266;2023-05-20T04:25:12;2.25;;;1.90;;
1446;SDS011;717;51.522;7.266;2023-05-20T04:27:41;2.88;;;1.90;;
1446;SDS011;717;51.522;7.266;2023-05-20T04:30:10;4.43;;;2.17;;
1446;SDS011;717;51.522;7.266;2023-05-20T04:32:40;2.20;;;1.95;;
1446;SDS011;717;51.522;7.266;2023-05-20T04:35:09;2.42;;;2.20;;
1446;SDS011;717;51.522;7.266;2023-05-20T04:37:41;2.40;;;1.90;;
1446;SDS011;717;51.522;7.266;2023-05-20T04:40:12;3.45;;;2.00;;
1446;SDS011;717;51.522;7.266;2023-05-20T04:42:41;3.22;;;2.08;;
1446;SDS011;717;51.522;7.266;2023-05-20T04:45:10;3.20;;;2.17;;
1446;SDS011;717;51.522;7.266;2023-05-20T04:47:38;2.83;;;2.30;;
1446;SDS011;717;51.522;7.266;2023-05-20T04:50:08;3.08;;;1.95;;
1446;SDS011;717;51.522;7.266;2023-05-20T04:52:41;2.78;;;2.20;;
1446;SDS011;717;51.522;7.266;2023-05-20T04:55:10;2.97;;;2.10;;
1446;SDS011;717;51.522;7.266;2023-05-20T04:57:40;3.30;;;2.38;;
1446;SDS011;717;51.522;7.266;2023-05-20T05:00:09;2.97;;;2.10;;
1446;SDS011;717;51.522;7.266;2023-05-20T05:02:38;3.63;;;2.42;;
1446;SDS011;717;51.522;7.266;2023-05-20T05:05:07;2.70;;;1.92;;
1446;SDS011;717;51.522;7.266;2023-05-20T05:07:36;3.28;;;1.70;;
1446;SDS011;717;51.522;7.266;2023-05-20T05:10:07;3.08;;;2.10;;
1446;SDS011;717;51.522;7.266;2023-05-20T05:12:36;3.67;;;1.90;;
1446;SDS011;717;51.522;7.266;2023-05-20T05:15:06;2.20;;;2.00;;
1446;SDS011;717;51.522;7.266;2023-05-20T05:17:35;3.42;;;2.45;;
1446;SDS011;717;51.522;7.266;2023-05-20T05:20:04;2.63;;;2.10;;
1446;SDS011;717;51.522;7.266;2023-05-20T05:22:34;4.00;;;2.15;;
1446;SDS011;717;51.522;7.266;2023-05-20T05:25:09;2.75;;;2.33;;
1446;SDS011;717;51.522;7.266;2023-05-20T05:27:38;3.00;;;2.05;;
1446;SDS011;717;51.522;7.266;2023-05-20T05:30:08;4.00;;;2.42;;
1446;SDS011;717;51.522;7.266;2023-05-20T05:32:37;3.40;;;2.22;;
1446;SDS011;717;51.522;7.266;2023-05-20T05:35:06;4.43;;;2.22;;
1446;SDS011;717;51.522;7.266;2023-05-20T05:37:35;4.10;;;2.47;;
1446;SDS011;717;51.522;7.266;2023-05-20T05:40:05;3.28;;;2.40;;
1446;SDS011;717;51.522;7.266;2023-05-20T05:42:37;3.65;;;2.45;;
1446;SDS011;717;51.522;7.266;2023-05-20T05:45:06;2.95;;;2.30;;
1446;SDS011;717;51.522;7.266;2023-05-20T05:47:36;3.33;;;2.28;;
1446;SDS011;717;51.522;7.266;2023-05-20T05:50:05;3.33;;;2.40;;
1446;SDS011;717;51.522;7.266;2023-05-20T05:52:34;4.13;;;2.40;;
1446;SDS011;717;51.522;7.266;2023-05-20T05:55:03;2.30;;;2.10;;
1446;SDS011;717;51.522;7.266;2023-05-20T05:57:35;3.55;;;1.98;;
1446;SDS011;717;51.522;7.266;2023-05-20T06:00:04;2.50;;;2.30;;
1446;SDS011;717;51.522;7.266;2023-05-20T06:02:33;2.72;;;2.45;;
1446;SDS011;717;51.522;7.266;2023-05-20T06:05:02;3.35;;;2.80;;
1446;SDS011;717;51.522;7.266;2023-05-20T06:07:31;4.97;;;2.75;;
1446;SDS011;717;51.522;7.266;2023-05-20T06:10:00;4.15;;;2.92;;
1446;SDS011;717;51.522;7.266;2023-05-20T06:12:29;4.18;;;2.45;;
1446;SDS011;717;51.522;7.266;2023-05-20T06:15:00;3.22;;;2.40;;
1446;SDS011;717;51.522;7.266;2023-05-20T06:17:29;3.03;;;2.60;;
1446;SDS011;717;51.522;7.266;2023-05-20T06:19:57;3.45;;;2.65;;
1446;SDS011;717;51.522;7.266;2023-05-20T06:22:26;3.05;;;2.72;;
1446;SDS011;717;51.522;7.266;2023-05-20T06:24:54;3.75;;;2.45;;
1446;SDS011;717;51.522;7.266;2023-05-20T06:27:26;4.25;;;2.53;;
1446;SDS011;717;51.522;7.266;2023-05-20T06:29:55;3.28;;;2.72;;
1446;SDS011;717;51.522;7.266;2023-05-20T06:32:26;4.20;;;2.72;;
1446;SDS011;717;51.522;7.266;2023-05-20T06:34:55;2.65;;;2.40;;
1446;SDS011;717;51.522;7.266;2023-05-20T06:37:23;3.60;;;2.67;;
1446;SDS011;717;51.522;7.266;2023-05-20T06:39:52;3.55;;;2.38;;
1446;SDS011;717;51.522;7.266;2023-05-20T06:42:20;4.22;;;2.72;;
1446;SDS011;717;51.522;7.266;2023-05-20T06:44:49;4.47;;;2.88;;
1446;SDS011;717;51.522;7.266;2023-05-20T06:47:17;5.00;;;2.92;;
1446;SDS011;717;51.522;7.266;2023-05-20T06:49:49;2.90;;;2.60;;
1446;SDS011;717;51.522;7.266;2023-05-20T06:52:17;3.90;;;2.92;;
1446;SDS011;717;51.522;7.266;2023-05-20T06:54:46;3.42;;;2.80;;
1446;SDS011;717;51.522;7.266;2023-05-20T06:57:14;2.88;;;2.67;;
1446;SDS011;717;51.522;7.266;2023-05-20T06:59:43;3.42;;;3.00;;
1446;SDS011;717;51.522;7.266;2023-05-20T07:02:11;3.70;;;2.63;;
1446;SDS011;717;51.522;7.266;2023-05-20T07:04:40;3.22;;;2.83;;
1446;SDS011;717;51.522;7.266;2023-05-20T07:07:11;3.47;;;3.17;;
1446;SDS011;717;51.522;7.266;2023-05-20T07:09:39;3.22;;;2.92;;
1446;SDS011;717;51.522;7.266;2023-05-20T07:12:09;5.20;;;3.50;;
1446;SDS011;717;51.522;7.266;2023-05-20T07:14:38;4.47;;;3.30;;
1446;SDS011;717;51.522;7.266;2023-05-20T07:17:06;3.30;;;2.97;;
1446;SDS011;717;51.522;7.266;2023-05-20T07:19:35;5.00;;;3.40;;
1446;SDS011;717;51.522;7.266;2023-05-20T07:22:03;4.00;;;3.45;;
1446;SDS011;717;51.522;7.266;2023-05-20T07:24:35;3.50;;;3.20;;
1446;SDS011;717;51.522;7.266;2023-05-20T07:27:03;4.25;;;3.42;;
1446;SDS011;717;51.522;7.266;2023-05-20T07:29:33;4.22;;;3.67;;
1446;SDS011;717;51.522;7.266;2023-05-20T07:32:02;5.55;;;3.80;;
1446;SDS011;717;51.522;7.266;2023-05-20T07:34:32;4.53;;;3.28;;
1446;SDS011;717;51.522;7.266;2023-05-20T07:37:00;4.13;;;3.67;;
1446;SDS011;717;51.522;7.266;2023-05-20T07:39:30;4.50;;;3.50;;
1446;SDS011;717;51.522;7.266;2023-05-20T07:42:01;3.70;;;3.00;;
1446;SDS011;717;51.522;7.266;2023-05-20T07:44:30;4.32;;;3.50;;
1446;SDS011;717;51.522;7.266;2023-05-20T07:46:58;4.07;;;3.60;;
1446;SDS011;717;51.522;7.266;2023-05-20T07:49:27;4.32;;;3.70;;
1446;SDS011;717;51.522;7.266;2023-05-20T07:51:55;4.05;;;3.65;;
1446;SDS011;717;51.522;7.266;2023-05-20T07:54:24;5.05;;;3.80;;
1446;SDS011;717;51.522;7.266;2023-05-20T07:56:53;5.38;;;3.50;;
1446;SDS011;717;51.522;7.266;2023-05-20T07:59:24;5.68;;;3.58;;
1446;SDS011;717;51.522;7.266;2023-05-20T08:01:53;4.38;;;3.58;;
1446;SDS011;717;51.522;7.266;2023-05-20T08:04:21;5.40;;;3.55;;
1446;SDS011;717;51.522;7.266;2023-05-20T08:06:51;4.60;;;4.03;;
1446;SDS011;717;51.522;7.266;2023-05-20T08:09:20;4.35;;;3.50;;
1446;SDS011;717;51.522;7.266;2023-05-20T08:11:48;5.38;;;3.65;;
1446;SDS011;717;51.522;7.266;2023-05-20T08:14:17;4.30;;;3.60;;
1446;SDS011;717;51.522;7.266;2023-05-20T08:16:48;4.93;;;3.80;;
1446;SDS011;717;51.522;7.266;2023-05-20T08:19:17;5.60;;;3.72;;
1446;SDS011;717;51.522;7.266;2023-05-20T08:21:46;5.63;;;4.10;;
1446;SDS011;717;51.522;7.266;2023-05-20T08:24:15;6.93;;;4.45;;
1446;SDS011;717;51.522;7.266;2023-05-20T08:26:43;6.10;;;3.90;;
1446;SDS011;717;51.522;7.266;2023-05-20T08:29:12;5.45;;;3.70;;
1446;SDS011;717;51.522;7.266;2023-05-20T08:31:41;4.82;;;4.25;;
1446;SDS011;717;51.522;7.266;2023-05-20T08:34:12;5.75;;;4.15;;
1446;SDS011;717;51.522;7.266;2023-05-20T08:36:41;4.80;;;4.20;;
1446;SDS011;717;51.522;7.266;2023-05-20T08:39:10;4.88;;;4.38;;
1446;SDS011;717;51.522;7.266;2023-05-20T08:41:39;4.93;;;4.43;;
1446;SDS011;717;51.522;7.266;2023-05-20T08:44:08;7.53;;;4.53;;
1446;SDS011;717;51.522;7.266;2023-05-20T08:46:37;5.25;;;4.40;;
1446;SDS011;717;51.522;7.266;2023-05-20T08:49:08;6.03;;;4.35;;
1446;SDS011;717;51.522;7.266;2023-05-20T08:51:39;4.93;;;4.43;;
1446;SDS011;717;51.522;7.266;2023-05-20T08:54:08;6.78;;;4.65;;
1446;SDS011;717;51.522;7.266;2023-05-20T08:56:37;5.90;;;5.32;;
1446;SDS011;717;51.522;7.266;2023-05-20T08:59:06;6.80;;;4.68;;
1446;SDS011;717;51.522;7.266;2023-05-20T09:01:37;7.65;;;5.00;;
1446;SDS011;717;51.522;7.266;2023-05-20T09:04:08;5.28;;;4.78;;
1446;SDS011;717;51.522;7.266;2023-05-20T09:06:45;5.28;;;4.70;;
1446;SDS011;717;51.522;7.266;2023-05-20T09:09:14;5.38;;;4.88;;
1446;SDS011;717;51.522;7.266;2023-05-20T09:11:43;5.70;;;5.10;;
1446;SDS011;717;51.522;7.266;2023-05-20T09:14:12;5.88;;;5.03;;
1446;SDS011;717;51.522;7.266;2023-05-20T09:16:40;5.60;;;4.45;;
1446;SDS011;717;51.522;7.266;2023-05-20T09:19:09;6.10;;;5.50;;
1446;SDS011;717;51.522;7.266;2023-05-20T09:21:39;5.22;;;4.60;;
1446;SDS011;717;51.522;7.266;2023-05-20T09:24:11;5.70;;;4.88;;
1446;SDS011;717;51.522;7.266;2023-05-20T09:26:40;5.88;;;5.00;;
1446;SDS011;717;51.522;7.266;2023-05-20T09:29:09;5.05;;;4.50;;
1446;SDS011;717;51.522;7.266;2023-05-20T09:31:37;6.93;;;4.55;;
1446;SDS011;717;51.522;7.266;2023-05-20T09:34:06;6.47;;;5.00;;
1446;SDS011;717;51.522;7.266;2023-05-20T09:36:36;5.57;;;4.75;;
1446;SDS011;717;51.522;7.266;2023-05-20T09:39:07;7.25;;;5.30;;
1446;SDS011;717;51.522;7.266;2023-05-20T09:41:43;5.45;;;4.95;;
1446;SDS011;717;51.522;7.266;2023-05-20T09:44:16;5.68;;;5.13;;
1446;SDS011;717;51.522;7.266;2023-05-20T09:46:46;6.68;;;5.10;;
1446;SDS011;717;51.522;7.266;2023-05-20T09:49:17;5.97;;;5.07;;
1446;SDS011;717;51.522;7.266;2023-05-20T09:51:47;5.47;;;4.97;;
1446;SDS011;717;51.522;7.266;2023-05-20T09:54:19;6.55;;;5.32;;
1446;SDS011;717;51.522;7.266;2023-05-20T09:56:49;5.07;;;4.13;;
1446;SDS011;717;51.522;7.266;2023-05-20T09:59:20;5.22;;;4.72;;
1446;SDS011;717;51.522;7.266;2023-05-20T10:01:50;5.85;;;4.70;;
1446;SDS011;717;51.522;7.266;2023-05-20T10:04:19;5.53;;;4.80;;
1446;SDS011;717;51.522;7.266;2023-05-20T10:07:09;5.18;;;4.68;;
1446;SDS011;717;51.522;7.266;2023-05-20T10:09:56;4.90;;;4.40;;
1446;SDS011;717;51.522;7.266;2023-05-20T10:12:40;5.72;;;4.95;;
1446;SDS011;717;51.522;7.266;2023-05-20T10:15:16;5.47;;;4.97;;
1446;SDS011;717;51.522;7.266;2023-05-20T10:17:51;4.50;;;4.10;;
1446;SDS011;717;51.522;7.266;2023-05-20T10:20:26;6.20;;;4.60;;
1446;SDS011;717;51.522;7.266;2023-05-20T10:22:56;4.65;;;4.25;;
1446;SDS011;717;51.522;7.266;2023-05-20T10:25:27;4.35;;;3.95;;
1446;SDS011;717;51.522;7.266;2023-05-20T10:28:06;5.35;;;4.50;;
1446;SDS011;717;51.522;7.266;2023-05-20T10:30:36;5.75;;;5.18;;
1446;SDS011;717;51.522;7.266;2023-05-20T10:33:04;5.95;;;4.60;;
1446;SDS011;717;51.522;7.266;2023-05-20T10:35:33;4.45;;;4.00;;
1446;SDS011;717;51.522;7.266;2023-05-20T10:38:08;5.65;;;4.60;;
1446;SDS011;717;51.522;7.266;2023-05-20T10:40:41;5.50;;;4.90;;
1446;SDS011;717;51.522;7.266;2023-05-20T10:43:10;5.40;;;4.90;;
1446;SDS011;717;51.522;7.266;2023-05-20T10:45:49;5.38;;;4.88;;
1446;SDS011;717;51.522;7.266;2023-05-20T10:48:19;5.57;;;5.00;;
1446;SDS011;717;51.522;7.266;2023-05-20T10:50:50;5.55;;;5.00;;
1446;SDS011;717;51.522;7.266;2023-05-20T10:53:22;6.38;;;5.15;;
1446;SDS011;717;51.522;7.266;2023-05-20T10:55:55;5.30;;;4.65;;
1446;SDS011;717;51.522;7.266;2023-05-20T10:58:23;4.90;;;4.45;;
1446;SDS011;717;51.522;7.266;2023-05-20T11:00:52;4.90;;;4.50;;
1446;SDS011;717;51.522;7.266;2023-05-20T11:03:22;5.80;;;4.80;;
1446;SDS011;717;51.522;7.266;2023-05-20T11:05:51;5.40;;;4.90;;
1446;SDS011;717;51.522;7.266;2023-05-20T11:08:20;6.25;;;4.60;;
1446;SDS011;717;51.522;7.266;2023-05-20T11:10:49;5.60;;;5.10;;
1446;SDS011;717;51.522;7.266;2023-05-20T11:13:20;5.90;;;5.30;;
1446;SDS011;717;51.522;7.266;2023-05-20T11:15:49;6.55;;;4.88;;
1446;SDS011;717;51.522;7.266;2023-05-20T11:18:18;5.90;;;5.22;;
1446;SDS011;717;51.522;7.266;2023-05-20T11:20:47;7.03;;;5.03;;
1446;SDS011;717;51.522;7.266;2023-05-20T11:23:16;7.53;;;5.15;;
1446;SDS011;717;51.522;7.266;2023-05-20T11:25:48;5.30;;;4.80;;
1446;SDS011;717;51.522;7.266;2023-05-20T11:28:17;5.15;;;4.70;;
1446;SDS011;717;51.522;7.266;2023-05-20T11:30:50;6.43;;;4.65;;
1446;SDS011;717;51.522;7.266;2023-05-20T11:33:19;5.05;;;4.63;;
1446;SDS011;717;51.522;7.266;2023-05-20T11:35:55;5.13;;;4.38;;
1446;SDS011;717;51.522;7.266;2023-05-20T11:38:24;4.07;;;3.65;;
1446;SDS011;717;51.522;7.266;2023-05-20T11:40:53;5.30;;;4.43;;
1446;SDS011;717;51.522;7.266;2023-05-20T11:43:25;4.82;;;4.05;;
1446;SDS011;717;51.522;7.266;2023-05-20T11:45:54;4.15;;;3.75;;
1446;SDS011;717;51.522;7.266;2023-05-20T11:48:24;5.78;;;3.60;;
1446;SDS011;717;51.522;7.266;2023-05-20T11:50:53;4.60;;;4.10;;
1446;SDS011;717;51.522;7.266;2023-05-20T11:53:23;4.57;;;3.88;;
1446;SDS011;717;51.522;7.266;2023-05-20T11:55:52;4.05;;;3.60;;
1446;SDS011;717;51.522;7.266;2023-05-20T11:58:25;3.45;;;3.13;;
1446;SDS011;717;51.522;7.266;2023-05-20T12:00:54;3.78;;;3.20;;
1446;SDS011;717;51.522;7.266;2023-05-20T12:03:23;3.95;;;3.65;;
1446;SDS011;717;51.522;7.266;2023-05-20T12:05:52;3.90;;;3.60;;
1446;SDS011;717;51.522;7.266;2023-05-20T12:08:20;4.00;;;3.60;;
1446;SDS011;717;51.522;7.266;2023-05-20T12:10:49;4.43;;;3.63;;
1446;SDS011;717;51.522;7.266;2023-05-20T12:13:18;5.63;;;3.78;;
1446;SDS011;717;51.522;7.266;2023-05-20T12:15:50;3.95;;;3.38;;
1446;SDS011;717;51.522;7.266;2023-05-20T12:18:19;3.72;;;3.42;;
1446;SDS011;717;51.522;7.266;2023-05-20T12:20:47;3.67;;;3.05;;
1446;SDS011;717;51.522;7.266;2023-05-20T12:23:16;4.15;;;3.13;;
1446;SDS011;717;51.522;7.266;2023-05-20T12:25:45;3.70;;;3.40;;
1446;SDS011;717;51.522;7.266;2023-05-20T12:28:14;3.55;;;3.25;;
1446;SDS011;717;51.522;7.266;2023-05-20T12:30:43;3.55;;;3.25;;
1446;SDS011;717;51.522;7.266;2023-05-20T12:33:14;3.97;;;3.10;;
1446;SDS011;717;51.522;7.266;2023-05-20T12:35:44;5.35;;;3.53;;
1446;SDS011;717;51.522;7.266;2023-05-20T12:38:13;3.53;;;3.22;;
1446;SDS011;717;51.522;7.266;2023-05-20T12:40:42;3.25;;;2.95;;
1446;SDS011;717;51.522;7.266;2023-05-20T12:43:10;3.67;;;3.10;;
1446;SDS011;717;51.522;7.266;2023-05-20T12:45:39;4.53;;;3.67;;
1446;SDS011;717;51.522;7.266;2023-05-20T12:48:07;4.05;;;2.92;;
1446;SDS011;717;51.522;7.266;2023-05-20T12:50:39;4.38;;;3.47;;
1446;SDS011;717;51.522;7.266;2023-05-20T12:53:07;3.35;;;3.05;;
1446;SDS011;717;51.522;7.266;2023-05-20T12:55:36;3.60;;;3.30;;
1446;SDS011;717;51.522;7.266;2023-05-20T12:58:05;4.93;;;2.80;;
1446;SDS011;717;51.522;7.266;2023-05-20T13:00:34;3.17;;;2.88;;
1446;SDS011;717;51.522;7.266;2023-05-20T13:03:03;3.97;;;3.22;;
1446;SDS011;717;51.522;7.266;2023-05-20T13:05:31;3.55;;;3.25;;
1446;SDS011;717;51.522;7.266;2023-05-20T13:08:03;3.90;;;2.80;;
1446;SDS011;717;51.522;7.266;2023-05-20T13:10:33;5.22;;;2.85;;
1446;SDS011;717;51.522;7.266;2023-05-20T13:13:01;3.88;;;3.47;;
1446;SDS011;717;51.522;7.266;2023-05-20T13:15:30;3.90;;;3.50;;
1446;SDS011;717;51.522;7.266;2023-05-20T13:17:58;3.92;;;3.10;;
1446;SDS011;717;51.522;7.266;2023-05-20T13:20:29;3.35;;;3.05;;
1446;SDS011;717;51.522;7.266;2023-05-20T13:22:58;3.20;;;2.90;;
1446;SDS011;717;51.522;7.266;2023-05-20T13:25:29;3.50;;;3.20;;
1446;SDS011;717;51.522;7.266;2023-05-20T13:27:58;3.10;;;2.90;;
1446;SDS011;717;51.522;7.266;2023-05-20T13:30:27;3.08;;;2.50;;
1446;SDS011;717;51.522;7.266;2023-05-20T13:32:56;3.53;;;2.70;;
1446;SDS011;717;51.522;7.266;2023-05-20T13:35:25;3.17;;;2.78;;
1446;SDS011;717;51.522;7.266;2023-05-20T13:37:53;4.88;;;3.03;;
1446;SDS011;717;51.522;7.266;2023-05-20T13:40:22;3.85;;;2.80;;
1446;SDS011;717;51.522;7.266;2023-05-20T13:42:53;3.47;;;3.00;;
1446;SDS011;717;51.522;7.266;2023-05-20T13:45:22;3.10;;;2.83;;
1446;SDS011;717;51.522;7.266;2023-05-20T13:47:50;2.63;;;2.33;;
1446;SDS011;717;51.522;7.266;2023-05-20T13:50:19;2.92;;;2.53;;
1446;SDS011;717;51.522;7.266;2023-05-20T13:52:48;2.75;;;2.25;;
1446;SDS011;717;51.522;7.266;2023-05-20T13:55:16;2.97;;;2.78;;
1446;SDS011;717;51.522;7.266;2023-05-20T13:57:45;3.50;;;3.20;;
1446;SDS011;717;51.522;7.266;2023-05-20T14:00:16;2.90;;;2.70;;
1446;SDS011;717;51.522;7.266;2023-05-20T14:02:45;4.00;;;3.10;;
1446;SDS011;717;51.522;7.266;2023-05-20T14:05:14;3.20;;;2.70;;
1446;SDS011;717;51.522;7.266;2023-05-20T14:07:42;2.75;;;2.55;;
1446;SDS011;717;51.522;7.266;2023-05-20T14:10:11;3.03;;;2.80;;
1446;SDS011;717;51.522;7.266;2023-05-20T14:12:40;3.95;;;2.42;;
1446;SDS011;717;51.522;7.266;2023-05-20T14:15:11;3.35;;;3.05;;
1446;SDS011;717;51.522;7.266;2023-05-20T14:17:43;2.97;;;2.65;;
1446;SDS011;717;51.522;7.266;2023-05-20T14:20:11;3.17;;;2.88;;
1446;SDS011;717;51.522;7.266;2023-05-20T14:22:40;3.47;;;2.90;;
1446;SDS011;717;51.522;7.266;2023-05-20T14:25:09;4.45;;;2.80;;
1446;SDS011;717;51.522;7.266;2023-05-20T14:27:37;3.03;;;2.72;;
1446;SDS011;717;51.522;7.266;2023-05-20T14:30:06;3.35;;;3.05;;
1446;SDS011;717;51.522;7.266;2023-05-20T14:32:36;3.55;;;3.25;;
1446;SDS011;717;51.522;7.266;2023-05-20T14:35:07;3.38;;;3.08;;
1446;SDS011;717;51.522;7.266;2023-05-20T14:37:36;3.88;;;3.40;;
1446;SDS011;717;51.522;7.266;2023-05-20T14:40:05;3.75;;;3.20;;
1446;SDS011;717;51.522;7.266;2023-05-20T14:42:35;4.95;;;3.28;;
1446;SDS011;717;51.522;7.266;2023-05-20T14:45:04;4.65;;;3.80;;
1446;SDS011;717;51.522;7.266;2023-05-20T14:47:33;3.72;;;3.25;;
1446;SDS011;717;51.522;7.266;2023-05-20T14:50:06;4.65;;;3.58;;
1446;SDS011;717;51.522;7.266;2023-05-20T14:52:36;3.88;;;3.15;;
1446;SDS011;717;51.522;7.266;2023-05-20T14:55:04;4.18;;;3.72;;
1446;SDS011;717;51.522;7.266;2023-05-20T14:57:33;3.78;;;3.35;;
1446;SDS011;717;51.522;7.266;2023-05-20T15:00:02;4.38;;;3.67;;
1446;SDS011;717;51.522;7.266;2023-05-20T15:02:31;4.82;;;3.78;;
1446;SDS011;717;51.522;7.266;2023-05-20T15:05:00;4.13;;;3.72;;
1446;SDS011;717;51.522;7.266;2023-05-20T15:07:31;4.07;;;3.70;;
1446;SDS011;717;51.522;7.266;2023-05-20T15:09:59;5.22;;;4.00;;
1446;SDS011;717;51.522;7.266;2023-05-20T15:12:28;3.88;;;3.55;;
1446;SDS011;717;51.522;7.266;2023-05-20T15:14:56;3.60;;;3.00;;
1446;SDS011;717;51.522;7.266;2023-05-20T15:17:25;3.83;;;3.50;;
1446;SDS011;717;51.522;7.266;2023-05-20T15:19:54;5.95;;;3.67;;
1446;SDS011;717;51.522;7.266;2023-05-20T15:22:22;4.18;;;3.58;;
1446;SDS011;717;51.522;7.266;2023-05-20T15:24:53;3.97;;;3.63;;
1446;SDS011;717;51.522;7.266;2023-05-20T15:27:22;4.60;;;3.55;;
1446;SDS011;717;51.522;7.266;2023-05-20T15:29:50;5.23;;;4.73;;
1446;SDS011;717;51.522;7.266;2023-05-20T15:32:19;5.25;;;4.32;;
1446;SDS011;717;51.522;7.266;2023-05-20T15:34:47;5.75;;;4.38;;
1446;SDS011;717;51.522;7.266;2023-05-20T15:37:16;6.13;;;5.53;;
1446;SDS011;717;51.522;7.266;2023-05-20T15:39:45;6.10;;;5.30;;
1446;SDS011;717;51.522;7.266;2023-05-20T15:42:16;4.50;;;4.20;;
1446;SDS011;717;51.522;7.266;2023-05-20T15:44:45;3.72;;;3.42;;